createdAt,value
2023-02-09T00:00:21.606Z,85.50
2023-02-09T00:02:48.451Z,86.30
2023-02-09T00:05:15.156Z,86.20
2023-02-09T00:07:41.922Z,86.30
2023-02-09T00:10:09.158Z,86.40
2023-02-09T00:12:56.027Z,86.00
2023-02-09T00:15:22.784Z,85.80
2023-02-09T00:17:49.539Z,86.10
2023-02-09T00:20:16.251Z,86.30
2023-02-09T00:22:42.963Z,86.20
2023-02-09T00:25:09.722Z,86.20
2023-02-09T00:27:36.537Z,86.20
2023-02-09T00:30:03.804Z,86.00
2023-02-09T00:32:33.097Z,86.00
2023-02-09T00:34:59.933Z,86.10
2023-02-09T00:37:26.674Z,86.40
2023-02-09T00:39:53.399Z,86.50
2023-02-09T00:42:20.140Z,86.50
2023-02-09T00:44:46.896Z,86.20
2023-02-09T00:47:13.730Z,86.00
2023-02-09T00:49:40.466Z,86.20
2023-02-09T00:52:09.766Z,86.20
2023-02-09T00:54:36.902Z,86.30
2023-02-09T00:57:05.415Z,86.70
2023-02-09T00:59:34.307Z,86.90
2023-02-09T01:02:01.807Z,86.70
2023-02-09T01:04:28.681Z,86.70
2023-02-09T01:06:55.488Z,86.50
2023-02-09T01:09:22.233Z,86.20
2023-02-09T01:11:49.062Z,86.00
2023-02-09T01:14:15.839Z,86.20
2023-02-09T01:16:42.898Z,86.20
2023-02-09T01:19:12.532Z,85.60
2023-02-09T01:21:39.856Z,85.80
2023-02-09T01:24:07.196Z,86.20
2023-02-09T01:26:34.092Z,85.80
2023-02-09T01:29:00.888Z,86.00
2023-02-09T01:31:33.338Z,86.20
2023-02-09T01:34:01.829Z,86.30
2023-02-09T01:36:30.292Z,86.20
2023-02-09T01:38:59.684Z,86.20
2023-02-09T01:41:27.949Z,86.30
2023-02-09T01:44:05.620Z,86.10
2023-02-09T01:46:36.594Z,86.00
2023-02-09T01:49:18.217Z,85.70
2023-02-09T01:52:01.951Z,86.00
2023-02-09T01:54:45.988Z,85.60
2023-02-09T01:57:25.240Z,85.60
2023-02-09T01:59:57.430Z,85.70
2023-02-09T02:02:25.171Z,85.80
2023-02-09T02:04:52.656Z,86.40
2023-02-09T02:07:29.505Z,86.00
2023-02-09T02:09:56.471Z,86.10
2023-02-09T02:12:23.938Z,86.00
2023-02-09T02:14:50.767Z,86.40
2023-02-09T02:17:52.809Z,86.80
2023-02-09T02:20:40.529Z,86.90
2023-02-09T02:23:24.593Z,86.50
2023-02-09T02:26:18.192Z,86.10
2023-02-09T02:29:13.831Z,86.00
2023-02-09T02:32:10.785Z,86.30
2023-02-09T02:34:46.083Z,85.60
2023-02-09T02:37:22.122Z,85.50
2023-02-09T02:40:05.229Z,85.90
2023-02-09T02:42:51.475Z,86.00
2023-02-09T02:45:43.213Z,86.00
2023-02-09T02:48:42.551Z,86.10
2023-02-09T02:51:19.433Z,86.20
2023-02-09T02:53:50.962Z,85.80
2023-02-09T02:56:26.908Z,85.80
2023-02-09T02:58:57.675Z,86.00
2023-02-09T03:01:28.908Z,85.70
2023-02-09T03:03:56.852Z,85.70
2023-02-09T03:06:23.571Z,85.90
2023-02-09T03:08:53.701Z,86.10
2023-02-09T03:11:22.536Z,86.50
2023-02-09T03:14:13.925Z,86.30
2023-02-09T03:16:53.881Z,86.00
2023-02-09T03:19:51.247Z,85.80
2023-02-09T03:22:30.172Z,86.00
2023-02-09T03:25:14.150Z,85.20
2023-02-09T03:27:50.092Z,85.50
2023-02-09T03:30:18.678Z,85.90
2023-02-09T03:32:46.962Z,85.90
2023-02-09T03:35:19.289Z,85.70
2023-02-09T03:37:46.059Z,85.60
2023-02-09T03:40:12.988Z,85.30
2023-02-09T03:42:39.754Z,85.70
2023-02-09T03:45:08.026Z,86.00
2023-02-09T03:47:34.844Z,85.50
2023-02-09T03:50:01.683Z,85.10
2023-02-09T03:52:30.918Z,85.00
2023-02-09T03:54:57.663Z,84.80
2023-02-09T03:57:24.584Z,84.90
2023-02-09T03:59:51.337Z,85.10
2023-02-09T04:02:18.111Z,85.70
2023-02-09T04:04:45.186Z,85.40
2023-02-09T04:07:12.439Z,85.00
2023-02-09T04:09:39.299Z,85.10
2023-02-09T04:12:06.308Z,85.10
2023-02-09T04:14:33.300Z,85.10
2023-02-09T04:17:00.015Z,85.70
2023-02-09T04:19:26.782Z,85.50
2023-02-09T04:21:53.578Z,85.60
2023-02-09T04:24:21.738Z,85.20
2023-02-09T04:26:48.579Z,84.80
2023-02-09T04:29:15.313Z,85.00
2023-02-09T04:31:42.044Z,85.20
2023-02-09T04:34:08.991Z,85.30
2023-02-09T04:36:35.739Z,85.10
2023-02-09T04:39:02.457Z,84.90
2023-02-09T04:41:29.317Z,85.20
2023-02-09T04:43:56.045Z,85.50
2023-02-09T04:46:22.768Z,85.60
2023-02-09T04:48:49.470Z,85.70
2023-02-09T04:51:16.547Z,85.50
2023-02-09T04:53:43.352Z,85.00
2023-02-09T04:56:15.187Z,85.10
2023-02-09T04:59:20.777Z,84.80
2023-02-09T05:01:47.526Z,85.20
2023-02-09T05:04:14.327Z,84.70
2023-02-09T05:06:41.028Z,85.10
2023-02-09T05:09:07.788Z,85.20
2023-02-09T05:11:34.506Z,85.30
2023-02-09T05:14:01.205Z,85.10
2023-02-09T05:16:28.042Z,84.80
2023-02-09T05:18:55.396Z,85.00
2023-02-09T05:21:22.186Z,84.70
2023-02-09T05:23:48.969Z,84.90
2023-02-09T05:26:15.692Z,84.60
2023-02-09T05:28:42.405Z,85.10
2023-02-09T05:31:09.297Z,85.40
2023-02-09T05:33:36.105Z,85.60
2023-02-09T05:36:09.514Z,85.70
2023-02-09T05:38:36.494Z,84.80
2023-02-09T05:41:08.208Z,85.00
2023-02-09T05:43:35.133Z,85.00
2023-02-09T05:46:02.080Z,84.90
2023-02-09T05:48:29.474Z,85.10
2023-02-09T05:50:56.215Z,84.90
2023-02-09T05:53:22.932Z,84.60
2023-02-09T05:55:49.654Z,84.20
2023-02-09T05:58:16.443Z,84.20
2023-02-09T06:00:43.515Z,84.50
2023-02-09T06:03:10.582Z,84.70
2023-02-09T06:05:37.360Z,84.80
2023-02-09T06:08:04.389Z,84.80
2023-02-09T06:10:31.085Z,84.90
2023-02-09T06:12:57.858Z,84.80
2023-02-09T06:15:24.622Z,85.00
2023-02-09T06:17:51.333Z,84.90
2023-02-09T06:20:18.200Z,85.00
2023-02-09T06:22:44.900Z,85.20
2023-02-09T06:25:11.601Z,85.30
2023-02-09T06:27:38.412Z,85.30
2023-02-09T06:30:06.460Z,85.20
2023-02-09T06:32:33.338Z,84.80
2023-02-09T06:35:00.094Z,85.10
2023-02-09T06:37:26.846Z,85.00
2023-02-09T06:39:53.536Z,84.50
2023-02-09T06:42:20.291Z,84.30
2023-02-09T06:44:47.006Z,84.70
2023-02-09T06:47:13.704Z,84.60
2023-02-09T06:49:40.489Z,84.70
2023-02-09T06:52:07.293Z,84.10
2023-02-09T06:54:33.992Z,83.90
2023-02-09T06:57:00.704Z,84.20
2023-02-09T06:59:27.407Z,83.90
2023-02-09T07:01:55.104Z,84.70
2023-02-09T07:04:22.295Z,84.40
2023-02-09T07:06:49.028Z,83.60
2023-02-09T07:09:15.743Z,84.20
2023-02-09T07:11:42.639Z,84.50
2023-02-09T07:14:09.349Z,84.10
2023-02-09T07:16:36.172Z,83.00
2023-02-09T07:19:02.956Z,83.60
2023-02-09T07:21:29.734Z,83.90
2023-02-09T07:23:56.476Z,84.40
2023-02-09T07:26:23.223Z,85.20
2023-02-09T07:28:49.939Z,85.40
2023-02-09T07:31:17.088Z,84.90
2023-02-09T07:33:44.753Z,84.50
2023-02-09T07:36:14.211Z,84.10
2023-02-09T07:38:41.348Z,84.00
2023-02-09T07:41:14.481Z,84.50
2023-02-09T07:43:41.301Z,84.90
2023-02-09T07:46:08.581Z,85.20
2023-02-09T07:48:39.019Z,85.40
2023-02-09T07:51:06.264Z,85.50
2023-02-09T07:53:33.585Z,86.20
2023-02-09T07:56:00.383Z,85.90
2023-02-09T07:58:27.237Z,85.90
2023-02-09T08:00:53.984Z,85.70
2023-02-09T08:03:23.773Z,85.40
2023-02-09T08:06:10.666Z,86.00
2023-02-09T08:08:37.384Z,85.80
2023-02-09T08:11:05.457Z,85.70
2023-02-09T08:13:38.072Z,85.60
2023-02-09T08:16:08.224Z,85.80
2023-02-09T08:18:39.889Z,85.60
2023-02-09T08:21:10.819Z,85.90
2023-02-09T08:23:40.396Z,86.10
2023-02-09T08:26:10.421Z,86.30
2023-02-09T08:28:44.256Z,85.90
2023-02-09T08:31:18.136Z,85.80
2023-02-09T08:33:46.861Z,86.20
2023-02-09T08:36:14.727Z,86.40
2023-02-09T08:38:44.648Z,86.50
2023-02-09T08:41:14.154Z,86.30
2023-02-09T08:43:41.205Z,85.50
2023-02-09T08:46:11.529Z,85.40
2023-02-09T08:48:41.280Z,85.30
2023-02-09T08:51:09.714Z,85.70
2023-02-09T08:53:36.813Z,85.90
2023-02-09T08:56:03.733Z,86.20
2023-02-09T08:58:32.006Z,85.60
2023-02-09T09:01:00.028Z,85.00
2023-02-09T09:03:30.041Z,84.70
2023-02-09T09:06:02.098Z,84.40
2023-02-09T09:08:30.380Z,84.50
2023-02-09T09:10:57.330Z,84.60
2023-02-09T09:13:24.689Z,84.10
2023-02-09T09:15:52.501Z,83.60
2023-02-09T09:18:19.319Z,83.10
2023-02-09T09:20:46.143Z,82.80
2023-02-09T09:23:13.458Z,82.80
2023-02-09T09:25:40.857Z,81.90
2023-02-09T09:28:08.654Z,81.60
2023-02-09T09:30:36.586Z,81.30
2023-02-09T09:33:03.998Z,81.30
2023-02-09T09:35:31.664Z,81.50
2023-02-09T09:37:58.576Z,80.70
2023-02-09T09:40:29.806Z,80.60
2023-02-09T09:43:04.392Z,80.30
2023-02-09T09:45:35.297Z,80.80
2023-02-09T09:48:02.288Z,80.60
2023-02-09T09:50:38.615Z,79.30
2023-02-09T09:53:15.426Z,78.50
2023-02-09T09:55:44.288Z,79.00
2023-02-09T09:58:21.156Z,79.80
2023-02-09T10:00:50.072Z,78.60
2023-02-09T10:03:19.980Z,78.70
2023-02-09T10:05:52.600Z,79.00
2023-02-09T10:08:32.181Z,78.10
2023-02-09T10:11:17.362Z,76.70
2023-02-09T10:13:54.669Z,75.60
2023-02-09T10:16:32.945Z,76.60
2023-02-09T10:19:06.007Z,74.60
2023-02-09T10:21:36.745Z,74.20
2023-02-09T10:24:11.706Z,72.90
2023-02-09T10:26:40.755Z,72.80
2023-02-09T10:29:24.373Z,71.30
2023-02-09T10:32:16.558Z,69.00
2023-02-09T10:34:45.581Z,68.40
2023-02-09T10:37:37.387Z,66.70
2023-02-09T10:40:07.162Z,67.20
2023-02-09T10:42:37.011Z,67.80
2023-02-09T10:45:14.712Z,68.30
2023-02-09T10:47:41.861Z,62.10
2023-02-09T10:50:11.466Z,61.00
2023-02-09T10:52:43.479Z,59.30
2023-02-09T10:55:21.948Z,60.10
2023-02-09T10:57:48.729Z,60.60
2023-02-09T11:00:15.467Z,60.70
2023-02-09T11:03:01.482Z,59.80
2023-02-09T11:05:35.176Z,61.00
2023-02-09T11:08:22.416Z,62.10
2023-02-09T11:11:03.144Z,59.50
2023-02-09T11:13:32.511Z,58.20
2023-02-09T11:16:28.349Z,57.80
2023-02-09T11:19:05.918Z,59.60
2023-02-09T11:21:49.322Z,59.70
2023-02-09T11:24:54.098Z,61.00
2023-02-09T11:27:38.940Z,60.60
2023-02-09T11:30:18.425Z,59.80
2023-02-09T11:33:01.552Z,58.30
2023-02-09T11:35:54.018Z,58.80
2023-02-09T11:38:37.349Z,59.80
2023-02-09T11:41:28.034Z,57.70
2023-02-09T11:43:57.529Z,60.10
2023-02-09T11:46:25.253Z,61.60
2023-02-09T11:48:59.958Z,63.10
2023-02-09T11:51:27.031Z,62.70
2023-02-09T11:54:05.730Z,62.50
2023-02-09T11:56:38.356Z,61.80
2023-02-09T11:59:15.295Z,62.20
2023-02-09T12:02:02.002Z,59.40
2023-02-09T12:04:36.729Z,61.10
2023-02-09T12:07:32.999Z,57.20
2023-02-09T12:10:31.020Z,59.00
2023-02-09T12:13:20.619Z,58.10
2023-02-09T12:15:52.404Z,58.90
2023-02-09T12:18:25.892Z,58.50
2023-02-09T12:20:54.277Z,58.10
2023-02-09T12:23:29.745Z,58.00
2023-02-09T12:26:33.895Z,56.20
2023-02-09T12:29:36.925Z,53.40
2023-02-09T12:32:03.708Z,54.60
2023-02-09T12:34:39.462Z,52.80
2023-02-09T12:37:16.569Z,52.40
2023-02-09T12:40:06.063Z,54.30
2023-02-09T12:42:44.963Z,52.30
2023-02-09T12:45:40.232Z,50.60
2023-02-09T12:48:09.908Z,51.10
2023-02-09T12:50:42.848Z,48.40
2023-02-09T12:53:21.893Z,47.40
2023-02-09T12:56:03.649Z,47.40
2023-02-09T12:58:45.760Z,47.40
2023-02-09T13:01:14.275Z,48.60
2023-02-09T13:03:55.057Z,47.20
2023-02-09T13:06:43.625Z,47.10
2023-02-09T13:09:19.271Z,46.90
2023-02-09T13:12:01.849Z,48.40
2023-02-09T13:14:30.532Z,46.30
2023-02-09T13:17:26.095Z,43.70
2023-02-09T13:20:22.237Z,44.80
2023-02-09T13:23:30.952Z,42.90
2023-02-09T13:26:21.698Z,42.30
2023-02-09T13:28:49.109Z,40.50
2023-02-09T13:31:30.110Z,44.00
2023-02-09T13:34:03.500Z,43.60
2023-02-09T13:36:42.659Z,42.20
2023-02-09T13:39:23.329Z,40.60
2023-02-09T13:41:53.543Z,40.90
2023-02-09T13:44:26.483Z,44.60
2023-02-09T13:46:59.464Z,43.70
2023-02-09T13:49:28.546Z,42.20
2023-02-09T13:52:16.191Z,44.80
2023-02-09T13:54:43.402Z,43.00
2023-02-09T13:57:17.988Z,41.60
2023-02-09T13:59:44.969Z,42.30
2023-02-09T14:02:19.494Z,41.60
2023-02-09T14:04:50.732Z,39.30
2023-02-09T14:07:19.011Z,42.00
2023-02-09T14:10:06.702Z,41.20
2023-02-09T14:13:05.062Z,38.90
2023-02-09T14:16:01.430Z,39.40
2023-02-09T14:18:54.082Z,39.70
2023-02-09T14:21:34.089Z,42.40
2023-02-09T14:24:13.382Z,43.40
2023-02-09T14:26:48.706Z,41.50
2023-02-09T14:29:26.073Z,43.60
2023-02-09T14:32:01.629Z,43.00
2023-02-09T14:34:35.835Z,41.30
2023-02-09T14:37:11.613Z,43.00
2023-02-09T14:40:06.091Z,42.90
2023-02-09T14:42:34.966Z,41.70
2023-02-09T14:45:14.936Z,40.50
2023-02-09T14:47:43.944Z,41.40
2023-02-09T14:50:13.327Z,41.50
2023-02-09T14:52:46.835Z,41.80
2023-02-09T14:55:23.838Z,42.90
2023-02-09T14:57:50.831Z,42.00
2023-02-09T15:00:17.903Z,41.80
2023-02-09T15:02:45.755Z,42.20
2023-02-09T15:05:12.699Z,42.50
2023-02-09T15:07:42.369Z,42.00
2023-02-09T15:10:20.798Z,40.80
2023-02-09T15:12:47.587Z,42.60
2023-02-09T15:15:19.887Z,42.50
2023-02-09T15:17:46.725Z,42.70
2023-02-09T15:20:15.487Z,47.20
2023-02-09T15:22:42.472Z,47.80
2023-02-09T15:25:10.017Z,49.30
2023-02-09T15:27:51.423Z,51.40
2023-02-09T15:30:22.451Z,50.60
2023-02-09T15:32:49.856Z,52.10
2023-02-09T15:35:19.670Z,52.10
2023-02-09T15:37:52.242Z,52.30
2023-02-09T15:40:45.433Z,53.40
2023-02-09T15:43:36.968Z,52.90
2023-02-09T15:46:07.140Z,53.40
2023-02-09T15:48:34.078Z,53.50
2023-02-09T15:51:00.865Z,54.90
2023-02-09T15:53:27.815Z,54.20
2023-02-09T15:55:57.941Z,55.60
2023-02-09T15:58:35.903Z,56.80
2023-02-09T16:01:03.602Z,58.60
2023-02-09T16:03:31.792Z,60.10
2023-02-09T16:06:24.674Z,63.30
2023-02-09T16:08:53.729Z,64.90
2023-02-09T16:11:29.311Z,67.40
2023-02-09T16:13:56.047Z,69.00
2023-02-09T16:16:25.320Z,69.00
2023-02-09T16:18:52.133Z,70.40
2023-02-09T16:21:24.933Z,70.40
2023-02-09T16:23:54.597Z,69.70
2023-02-09T16:26:23.039Z,70.10
2023-02-09T16:28:51.711Z,70.40
2023-02-09T16:31:19.244Z,72.10
2023-02-09T16:33:46.470Z,73.00
2023-02-09T16:36:16.711Z,73.00
2023-02-09T16:38:43.857Z,75.70
2023-02-09T16:41:32.315Z,77.10
2023-02-09T16:44:00.381Z,78.00
2023-02-09T16:46:30.535Z,77.80
2023-02-09T16:49:00.678Z,77.00
2023-02-09T16:51:31.034Z,77.10
2023-02-09T16:53:58.072Z,77.30
2023-02-09T16:56:25.884Z,78.20
2023-02-09T16:58:52.771Z,78.60
2023-02-09T17:01:23.234Z,79.20
2023-02-09T17:03:55.377Z,79.30
2023-02-09T17:06:28.453Z,79.20
2023-02-09T17:08:56.608Z,78.90
2023-02-09T17:11:25.565Z,78.80
2023-02-09T17:13:52.429Z,79.90
2023-02-09T17:16:21.944Z,80.30
2023-02-09T17:18:52.767Z,80.70
2023-02-09T17:21:25.331Z,81.20
2023-02-09T17:23:52.915Z,81.50
2023-02-09T17:26:20.651Z,81.20
2023-02-09T17:28:47.869Z,81.20
2023-02-09T17:31:26.974Z,80.90
2023-02-09T17:33:57.304Z,81.00
2023-02-09T17:36:27.642Z,81.30
2023-02-09T17:38:56.580Z,81.80
2023-02-09T17:41:33.978Z,81.80
2023-02-09T17:44:24.233Z,81.70
2023-02-09T17:46:56.025Z,82.00
2023-02-09T17:49:22.774Z,81.80
2023-02-09T17:51:49.542Z,82.50
2023-02-09T17:54:19.259Z,82.30
2023-02-09T17:56:46.793Z,82.70
2023-02-09T17:59:14.724Z,83.00
2023-02-09T18:01:51.578Z,83.70
2023-02-09T18:04:21.678Z,83.50
2023-02-09T18:06:48.883Z,83.90
2023-02-09T18:09:15.625Z,83.90
2023-02-09T18:11:45.330Z,83.60
2023-02-09T18:14:13.856Z,83.40
2023-02-09T18:16:42.526Z,83.10
2023-02-09T18:19:10.567Z,82.90
2023-02-09T18:21:39.826Z,83.10
2023-02-09T18:24:07.638Z,83.00
2023-02-09T18:26:34.367Z,82.90
2023-02-09T18:29:01.086Z,82.60
2023-02-09T18:31:27.869Z,82.20
2023-02-09T18:33:54.694Z,82.20
2023-02-09T18:36:21.418Z,82.60
2023-02-09T18:38:49.128Z,83.00
2023-02-09T18:41:15.861Z,84.30
2023-02-09T18:43:42.547Z,84.70
2023-02-09T18:46:13.603Z,84.80
2023-02-09T18:48:40.459Z,84.80
2023-02-09T18:51:08.372Z,84.40
2023-02-09T18:53:35.347Z,85.20
2023-02-09T18:56:02.107Z,85.70
2023-02-09T18:58:29.114Z,85.40
2023-02-09T19:00:56.068Z,85.20
2023-02-09T19:03:23.177Z,84.10
2023-02-09T19:05:50.028Z,84.50
2023-02-09T19:08:16.724Z,84.70
2023-02-09T19:10:44.132Z,85.40
2023-02-09T19:13:11.194Z,85.20
2023-02-09T19:15:39.036Z,84.90
2023-02-09T19:18:06.175Z,84.30
2023-02-09T19:20:34.231Z,84.70
2023-02-09T19:23:02.404Z,84.50
2023-02-09T19:25:30.366Z,84.70
2023-02-09T19:27:57.475Z,85.00
2023-02-09T19:30:26.347Z,85.20
2023-02-09T19:32:54.836Z,85.10
2023-02-09T19:35:22.824Z,85.60
2023-02-09T19:37:56.137Z,86.20
2023-02-09T19:40:35.916Z,85.80
2023-02-09T19:43:04.220Z,84.90
2023-02-09T19:45:36.338Z,84.70
2023-02-09T19:48:07.589Z,84.60
2023-02-09T19:50:36.787Z,85.60
2023-02-09T19:53:05.797Z,85.70
2023-02-09T19:55:33.499Z,85.60
2023-02-09T19:58:00.243Z,85.80
2023-02-09T20:00:27.047Z,86.00
2023-02-09T20:02:53.836Z,86.90
2023-02-09T20:05:20.596Z,86.60
2023-02-09T20:07:48.802Z,86.20
2023-02-09T20:10:15.669Z,86.70
2023-02-09T20:12:42.513Z,86.70
2023-02-09T20:15:09.255Z,86.50
2023-02-09T20:17:36.158Z,85.60
2023-02-09T20:20:04.110Z,85.80
2023-02-09T20:22:31.163Z,85.80
2023-02-09T20:24:57.909Z,86.00
2023-02-09T20:27:24.674Z,85.90
2023-02-09T20:29:51.444Z,86.10
2023-02-09T20:32:18.239Z,86.20
2023-02-09T20:34:45.007Z,86.40
2023-02-09T20:37:12.029Z,86.00
2023-02-09T20:39:38.762Z,86.10
2023-02-09T20:42:25.790Z,86.40
2023-02-09T20:45:11.324Z,87.10
2023-02-09T20:47:38.045Z,86.80
2023-02-09T20:50:05.177Z,85.60
2023-02-09T20:52:32.068Z,85.90
2023-02-09T20:54:59.043Z,86.20
2023-02-09T20:57:29.448Z,86.60
2023-02-09T20:59:57.598Z,86.50
2023-02-09T21:02:25.209Z,85.50
2023-02-09T21:04:54.978Z,85.30
2023-02-09T21:07:21.789Z,85.50
2023-02-09T21:09:48.601Z,86.30
2023-02-09T21:12:15.352Z,86.80
2023-02-09T21:14:45.034Z,86.60
2023-02-09T21:17:12.751Z,86.70
2023-02-09T21:19:40.456Z,87.30
2023-02-09T21:22:07.380Z,87.30
2023-02-09T21:24:34.327Z,87.20
2023-02-09T21:27:01.030Z,86.20
2023-02-09T21:29:29.137Z,86.30
2023-02-09T21:31:56.698Z,86.90
2023-02-09T21:34:23.511Z,86.80
2023-02-09T21:36:50.256Z,87.30
2023-02-09T21:39:17.024Z,87.10
2023-02-09T21:42:02.290Z,87.30
2023-02-09T21:44:29.309Z,86.90
2023-02-09T21:46:56.195Z,86.80
2023-02-09T21:49:23.875Z,86.70
2023-02-09T21:51:50.612Z,86.90
2023-02-09T21:54:18.285Z,87.60
2023-02-09T21:56:45.129Z,88.00
2023-02-09T21:59:12.055Z,87.80
2023-02-09T22:01:39.480Z,87.80
2023-02-09T22:04:06.365Z,87.30
2023-02-09T22:06:33.342Z,86.80
2023-02-09T22:09:03.767Z,86.90
2023-02-09T22:11:30.535Z,87.40
2023-02-09T22:13:57.275Z,86.80
2023-02-09T22:16:24.472Z,86.90
2023-02-09T22:18:52.100Z,86.80
2023-02-09T22:21:19.128Z,86.90
2023-02-09T22:23:46.087Z,87.40
2023-02-09T22:26:13.924Z,87.40
2023-02-09T22:28:41.653Z,87.70
2023-02-09T22:31:11.616Z,87.80
2023-02-09T22:33:38.788Z,87.30
2023-02-09T22:36:08.751Z,87.20
2023-02-09T22:38:36.473Z,87.10
2023-02-09T22:41:08.287Z,87.40
2023-02-09T22:43:35.089Z,87.70
2023-02-09T22:46:01.891Z,87.40
2023-02-09T22:48:29.167Z,87.30
2023-02-09T22:50:55.888Z,86.80
2023-02-09T22:53:22.600Z,87.00
2023-02-09T22:55:49.733Z,86.80
2023-02-09T22:58:16.577Z,87.10
2023-02-09T23:00:43.351Z,87.30
2023-02-09T23:03:10.244Z,87.50
2023-02-09T23:05:37.019Z,87.70
2023-02-09T23:08:03.860Z,87.40
2023-02-09T23:10:30.666Z,87.20
2023-02-09T23:12:57.459Z,87.60
2023-02-09T23:15:24.208Z,87.70
2023-02-09T23:17:51.057Z,87.70
2023-02-09T23:20:18.090Z,87.70
2023-02-09T23:22:44.924Z,87.00
2023-02-09T23:25:11.689Z,86.60
2023-02-09T23:27:38.479Z,87.00
2023-02-09T23:30:05.493Z,87.00
2023-02-09T23:32:32.458Z,87.20
2023-02-09T23:37:37.388Z,86.60
2023-02-09T23:40:04.868Z,86.80
2023-02-09T23:42:31.700Z,87.10
2023-02-09T23:44:58.421Z,87.30
2023-02-09T23:47:25.146Z,87.40
2023-02-09T23:49:51.844Z,87.10
2023-02-09T23:52:18.565Z,87.30
2023-02-09T23:54:45.280Z,87.00
2023-02-09T23:57:12.029Z,86.90
2023-02-09T23:59:39.105Z,87.20
